Time;durP1;ratioP1;P1;durP2;ratioP2;P2;SDS_P1;SDS_P2;PMS_P1;PMS_P2;Temp;Humidity;BMP_temperature;BMP_pressure;BME280_temperature;BME280_humidity;BME280_pressure;Samples;Min_cycle;Max_cycle;Signal;HPM_P1;HPM_P2
2021/06/28 00:00:27;;;;;;;3.71;1.79;;;;;;;23.49;65.71;100111.80;480833;109;922556;-72
2021/06/28 00:01:32;;;;;;;3.42;2.01;;;;;;;23.48;65.73;100116.56;480530;109;930315;-71
2021/06/28 00:02:36;;;;;;;3.95;2.08;;;;;;;23.48;65.80;100118.52;481114;108;922469;-71
2021/06/28 00:03:41;;;;;;;2.41;2.07;;;;;;;23.47;65.78;100120.48;483194;108;922730;-71
2021/06/28 00:04:45;;;;;;;4.04;2.22;;;;;;;23.47;65.81;100120.48;481267;108;923037;-73
2021/06/28 00:05:49;;;;;;;4.58;2.20;;;;;;;23.46;65.85;100121.61;481929;108;922426;-71
2021/06/28 00:06:53;;;;;;;4.61;2.04;;;;;;;23.46;65.89;100118.83;480465;108;925788;-69
2021/06/28 00:07:57;;;;;;;3.84;2.24;;;;;;;23.45;65.92;100114.36;482547;109;924473;-70
2021/06/28 00:09:01;;;;;;;2.92;1.95;;;;;;;23.46;66.05;100129.95;482165;108;931783;-71
2021/06/28 00:10:07;;;;;;;2.74;2.35;;;;;;;23.46;66.11;100124.39;482086;108;924578;-70
2021/06/28 00:11:12;;;;;;;3.59;2.60;;;;;;;23.47;66.08;100122.44;481776;108;932506;-71
2021/06/28 00:12:16;;;;;;;3.53;3.06;;;;;;;23.47;66.03;100125.22;480908;108;924072;-72
2021/06/28 00:13:20;;;;;;;2.95;2.44;;;;;;;23.47;66.07;100119.66;480093;108;924044;-70
2021/06/28 00:14:23;;;;;;;5.04;3.04;;;;;;;23.46;66.12;100121.61;471197;112;931718;-69
2021/06/28 00:15:31;;;;;;;2.87;2.56;;;;;;;23.45;66.08;100111.58;481082;108;924040;-72
2021/06/28 00:16:35;;;;;;;3.60;2.93;;;;;;;23.45;66.05;100119.92;481283;108;924840;-72
2021/06/28 00:17:40;;;;;;;3.79;2.77;;;;;;;23.45;66.11;100116.31;479723;108;924015;-70
2021/06/28 00:18:43;;;;;;;3.94;3.04;;;;;;;23.43;66.19;100116.62;482571;109;923804;-71
2021/06/28 00:19:47;;;;;;;3.12;2.58;;;;;;;23.42;66.21;100114.17;480999;106;925591;-71
2021/06/28 00:20:51;;;;;;;2.64;2.41;;;;;;;23.41;66.17;100115.30;481252;109;931788;-71
2021/06/28 00:21:54;;;;;;;2.53;2.31;;;;;;;23.40;66.15;100120.03;481357;109;923948;-73
2021/06/28 00:22:58;;;;;;;3.83;2.61;;;;;;;23.39;66.17;100120.34;481105;109;931755;-73
2021/06/28 00:24:01;;;;;;;3.65;2.79;;;;;;;23.37;66.20;100119.84;481993;109;925229;-71
2021/06/28 00:25:09;;;;;;;4.72;2.31;;;;;;;23.35;66.23;100120.14;482270;107;932019;-72
2021/06/28 00:26:14;;;;;;;5.04;2.74;;;;;;;23.34;66.34;100117.66;480289;108;924816;-71
2021/06/28 00:27:22;;;;;;;4.12;2.89;;;;;;;23.34;66.37;100115.70;480433;109;925953;-71
2021/06/28 00:28:23;;;;;;;4.05;3.27;;;;;;;23.35;66.35;100113.75;481777;108;931930;-71
2021/06/28 00:29:27;;;;;;;3.61;3.31;;;;;;;23.37;66.40;100123.45;481488;108;926682;-71
2021/06/28 00:30:38;;;;;;;4.80;3.25;;;;;;;23.38;66.38;100116.73;481788;108;931816;-71
2021/06/28 00:31:42;;;;;;;5.09;3.82;;;;;;;23.37;66.36;100120.67;481386;108;932611;-71
2021/06/28 00:32:46;;;;;;;4.71;3.40;;;;;;;23.37;66.31;100131.80;481094;109;924020;-72
2021/06/28 00:33:50;;;;;;;7.75;4.02;;;;;;;23.38;66.34;100132.59;480058;108;924435;-71
2021/06/28 00:34:53;;;;;;;4.91;4.12;;;;;;;23.38;66.36;100127.03;481087;107;923980;-71
2021/06/28 00:35:57;;;;;;;6.28;3.79;;;;;;;23.38;66.36;100127.03;482105;109;923884;-71
2021/06/28 00:37:02;;;;;;;4.68;4.12;;;;;;;23.38;66.37;100127.03;481259;108;932053;-71
2021/06/28 00:38:07;;;;;;;4.06;3.69;;;;;;;23.38;66.39;100127.03;480814;108;924083;-71
2021/06/28 00:39:11;;;;;;;3.71;3.44;;;;;;;23.38;66.44;100132.59;480964;108;922555;-71
2021/06/28 00:40:16;;;;;;;5.12;4.13;;;;;;;23.37;66.50;100128.19;480958;108;922684;-72
2021/06/28 00:41:20;;;;;;;4.85;3.86;;;;;;;23.36;66.56;100130.14;482380;107;922505;-70
2021/06/28 00:42:25;;;;;;;5.08;4.20;;;;;;;23.36;66.56;100132.10;483176;109;922901;-72
2021/06/28 00:43:28;;;;;;;7.54;4.37;;;;;;;23.33;66.46;100129.92;481660;107;930382;-71
2021/06/28 00:44:32;;;;;;;5.31;4.45;;;;;;;23.34;66.59;100132.41;483090;108;922476;-72
2021/06/28 00:45:39;;;;;;;4.62;4.21;;;;;;;23.32;66.64;100137.47;483807;108;927138;-72
2021/06/28 00:46:45;;;;;;;5.14;4.47;;;;;;;23.31;66.63;100146.12;484313;107;922769;-71
2021/06/28 00:47:50;;;;;;;6.08;4.51;;;;;;;23.28;66.70;100141.98;482533;108;923027;-72
2021/06/28 00:48:55;;;;;;;4.71;4.27;;;;;;;23.27;66.75;100143.11;482203;109;922708;-72
2021/06/28 00:49:59;;;;;;;3.87;3.56;;;;;;;23.26;66.77;100142.31;483058;107;922593;-72
2021/06/28 00:51:03;;;;;;;4.49;3.84;;;;;;;23.26;66.80;100147.05;484021;108;923119;-71
2021/06/28 00:52:06;;;;;;;4.35;3.41;;;;;;;23.27;66.83;100148.67;482999;108;930406;-72
2021/06/28 00:53:13;;;;;;;3.12;2.89;;;;;;;23.27;66.90;100157.02;482376;108;922715;-72
2021/06/28 00:54:16;;;;;;;2.82;2.59;;;;;;;23.26;66.88;100149.84;483941;109;930585;-72
2021/06/28 00:55:20;;;;;;;3.05;2.83;;;;;;;23.23;66.85;100147.66;482838;109;924402;-72
2021/06/28 00:56:24;;;;;;;2.74;2.33;;;;;;;23.22;66.92;100146.83;483775;108;922583;-72
2021/06/28 00:57:27;;;;;;;2.65;2.45;;;;;;;23.20;66.96;100143.55;481138;108;924031;-70
2021/06/28 00:58:31;;;;;;;3.05;2.28;;;;;;;23.20;66.99;100146.33;481938;109;931857;-72
2021/06/28 00:59:34;;;;;;;4.98;2.22;;;;;;;23.20;67.08;100140.77;483275;106;925292;-72
2021/06/28 01:00:40;;;;;;;6.62;2.36;;;;;;;23.21;67.07;100136.03;482258;108;926408;-71
2021/06/28 01:01:43;;;;;;;4.15;2.46;;;;;;;23.22;66.97;100146.83;483168;109;922523;-73
2021/06/28 01:02:47;;;;;;;3.66;2.70;;;;;;;23.23;66.90;100147.66;483326;109;924028;-71
2021/06/28 01:03:51;;;;;;;2.63;2.30;;;;;;;23.22;66.91;100148.78;483209;108;924826;-72
2021/06/28 01:04:55;;;;;;;2.78;2.56;;;;;;;23.20;66.99;100145.50;482986;108;924479;-72
2021/06/28 01:06:00;;;;;;;3.28;2.17;;;;;;;23.19;67.02;100141.90;481153;109;931827;-72
2021/06/28 01:07:04;;;;;;;3.11;2.44;;;;;;;23.18;67.03;100139.41;482472;109;924535;-73
2021/06/28 01:08:08;;;;;;;3.14;2.31;;;;;;;23.19;67.11;100141.07;483900;107;924459;-71
2021/06/28 01:09:12;;;;;;;5.75;2.64;;;;;;;23.20;67.12;100145.50;482450;108;924010;-72
2021/06/28 01:10:19;;;;;;;3.31;2.82;;;;;;;23.23;67.07;100142.09;482438;109;923993;-70
2021/06/28 01:11:23;;;;;;;2.65;2.19;;;;;;;23.23;67.02;100139.31;484623;109;923952;-73
2021/06/28 01:12:27;;;;;;;3.62;2.29;;;;;;;23.24;67.02;100138.19;482434;108;924525;-72
2021/06/28 01:13:32;;;;;;;4.29;2.45;;;;;;;23.24;66.98;100130.66;482477;108;924035;-70
2021/06/28 01:14:36;;;;;;;3.37;2.89;;;;;;;23.26;67.05;100135.92;472773;111;924088;-71
2021/06/28 01:15:40;;;;;;;3.32;3.01;;;;;;;23.26;67.02;100125.63;484141;109;924441;-71
2021/06/28 01:16:45;;;;;;;4.10;3.22;;;;;;;23.26;67.01;100122.84;483480;109;931967;-71
2021/06/28 01:17:50;;;;;;;3.96;2.74;;;;;;;23.27;67.00;100129.20;483279;108;928295;-72
2021/06/28 01:18:54;;;;;;;3.15;2.74;;;;;;;23.28;66.88;100136.42;482860;108;932666;-72
2021/06/28 01:20:01;;;;;;;2.98;2.76;;;;;;;23.28;66.86;100133.64;482503;109;932042;-72
2021/06/28 01:21:06;;;;;;;4.12;3.48;;;;;;;23.28;66.86;100141.98;479539;108;922649;-72
2021/06/28 01:22:12;;;;;;;3.76;3.09;;;;;;;23.26;66.86;100145.09;483557;108;924419;-72
2021/06/28 01:23:27;;;;;;;3.86;3.16;;;;;;;23.25;66.87;100146.23;482363;109;926467;-71
2021/06/28 01:24:32;;;;;;;3.93;3.60;;;;;;;23.23;66.94;100147.66;484180;109;924474;-71
2021/06/28 01:25:36;;;;;;;7.21;3.79;;;;;;;23.21;67.04;100138.81;476565;110;922898;-72
2021/06/28 01:26:40;;;;;;;5.34;3.81;;;;;;;23.21;67.07;100139.61;475337;109;931986;-71
2021/06/28 01:27:47;;;;;;;4.43;4.01;;;;;;;23.21;67.01;100138.81;482883;109;930369;-71
2021/06/28 01:28:51;;;;;;;4.49;3.71;;;;;;;23.20;67.00;100146.33;483327;108;924063;-73
2021/06/28 01:29:56;;;;;;;4.88;4.43;;;;;;;23.20;67.01;100137.98;483463;108;926934;-71
2021/06/28 01:31:01;;;;;;;5.93;4.25;;;;;;;23.21;67.02;100136.03;484411;109;922501;-71
2021/06/28 01:32:05;;;;;;;5.03;4.43;;;;;;;23.18;67.07;100137.46;483217;108;922532;-71
2021/06/28 01:33:09;;;;;;;4.59;4.19;;;;;;;23.17;67.15;100134.98;482649;108;922547;-72
2021/06/28 01:34:13;;;;;;;4.64;4.24;;;;;;;23.16;67.20;100130.55;483079;108;922878;-71
2021/06/28 01:35:18;;;;;;;6.21;4.78;;;;;;;23.15;67.25;100128.92;483403;108;922846;-72
2021/06/28 01:36:23;;;;;;;4.59;4.02;;;;;;;23.14;67.29;100139.22;483072;108;930406;-71
2021/06/28 01:37:29;;;;;;;4.99;4.14;;;;;;;23.14;67.30;100135.61;482914;108;922488;-71
2021/06/28 01:38:33;;;;;;;5.44;3.97;;;;;;;23.15;67.28;100137.27;469938;112;930400;-72
2021/06/28 01:39:36;;;;;;;5.12;4.06;;;;;;;23.15;67.29;100129.75;468188;111;922551;-71
2021/06/28 01:40:41;;;;;;;3.97;3.61;;;;;;;23.16;67.28;100133.33;471210;109;923200;-72
2021/06/28 01:41:45;;;;;;;5.74;3.96;;;;;;;23.15;67.21;100131.70;471376;111;922410;-71
2021/06/28 01:42:49;;;;;;;4.06;3.54;;;;;;;23.15;67.25;100140.05;458072;113;923027;-71
2021/06/28 01:43:53;;;;;;;5.97;3.69;;;;;;;23.15;67.19;100140.05;461538;112;923499;-72
2021/06/28 01:44:57;;;;;;;7.21;3.98;;;;;;;23.14;67.19;100144.78;469606;110;930750;-71
2021/06/28 01:46:01;;;;;;;3.76;3.41;;;;;;;23.14;67.23;100149.52;469960;111;930518;-71
2021/06/28 01:47:04;;;;;;;5.78;3.75;;;;;;;23.13;67.29;100134.78;470118;110;930402;-71
2021/06/28 01:48:08;;;;;;;4.53;3.87;;;;;;;23.14;67.29;100141.17;456793;113;922638;-72
2021/06/28 01:49:12;;;;;;;4.92;3.48;;;;;;;23.13;67.27;100142.30;471329;112;931011;-72
2021/06/28 01:50:18;;;;;;;5.77;3.48;;;;;;;23.13;67.31;100142.30;471818;110;924020;-71
2021/06/28 01:51:21;;;;;;;3.81;3.13;;;;;;;23.12;67.32;100148.99;458318;113;923825;-71
2021/06/28 01:52:25;;;;;;;5.27;3.85;;;;;;;23.12;67.33;100148.99;474610;111;924545;-72
2021/06/28 01:53:29;;;;;;;3.88;3.28;;;;;;;23.12;67.40;100146.21;475284;109;924221;-71
2021/06/28 01:54:32;;;;;;;3.79;3.41;;;;;;;23.12;67.33;100147.04;482106;108;932018;-71
2021/06/28 01:55:37;;;;;;;4.58;3.29;;;;;;;23.13;67.32;100145.91;481137;108;924030;-72
2021/06/28 01:56:42;;;;;;;3.60;2.90;;;;;;;23.14;67.29;100144.78;481372;108;922900;-72
2021/06/28 01:57:57;;;;;;;2.66;2.40;;;;;;;23.13;67.28;100145.91;480267;108;924514;-72
2021/06/28 01:59:01;;;;;;;2.87;2.45;;;;;;;23.13;67.23;100148.69;479478;109;923981;-71
2021/06/28 02:00:07;;;;;;;2.94;2.60;;;;;;;23.11;67.23;100145.38;480712;108;925122;-72
2021/06/28 02:01:10;;;;;;;4.39;2.61;;;;;;;23.10;67.31;100140.95;481089;108;924345;-72
2021/06/28 02:02:14;;;;;;;2.90;2.67;;;;;;;23.11;67.41;100141.77;480616;109;923805;-71
2021/06/28 02:03:20;;;;;;;4.19;2.54;;;;;;;23.12;67.42;100149.82;480563;108;931817;-71
2021/06/28 02:04:24;;;;;;;3.32;2.64;;;;;;;23.14;67.41;100149.52;481422;108;924121;-71
2021/06/28 02:05:32;;;;;;;3.77;3.12;;;;;;;23.16;67.38;100148.06;480548;108;924917;-69
2021/06/28 02:06:38;;;;;;;3.75;2.57;;;;;;;23.17;67.34;100151.67;480339;108;923210;-71
2021/06/28 02:07:41;;;;;;;4.37;3.11;;;;;;;23.17;67.27;100148.89;480957;109;925614;-70
2021/06/28 02:08:45;;;;;;;3.31;2.86;;;;;;;23.18;67.29;100150.55;481210;108;932223;-71
2021/06/28 02:09:48;;;;;;;4.59;3.05;;;;;;;23.18;67.33;100145.80;481079;109;927181;-72
2021/06/28 02:10:55;;;;;;;4.81;2.76;;;;;;;23.21;67.35;100147.16;479838;107;933045;-70
2021/06/28 02:11:59;;;;;;;3.91;2.98;;;;;;;23.23;67.26;100148.48;481173;109;933167;-71
2021/06/28 02:13:04;;;;;;;3.42;2.78;;;;;;;23.24;67.22;100154.88;481387;108;924038;-71
2021/06/28 02:14:08;;;;;;;4.01;3.17;;;;;;;23.24;67.17;100152.92;480837;109;925394;-72
2021/06/28 02:15:20;;;;;;;5.56;2.85;;;;;;;23.25;67.12;100151.79;481187;108;923772;-72
2021/06/28 02:16:24;;;;;;;3.42;3.08;;;;;;;23.26;67.13;100152.62;480652;108;924001;-72
2021/06/28 02:17:27;;;;;;;6.96;3.08;;;;;;;23.28;67.13;100158.67;481710;108;924033;-72
2021/06/28 02:18:31;;;;;;;3.95;3.26;;;;;;;23.28;67.05;100153.94;480832;109;924139;-72
2021/06/28 02:19:35;;;;;;;3.35;2.98;;;;;;;23.29;67.02;100157.55;480976;109;931941;-73
2021/06/28 02:20:40;;;;;;;6.20;3.46;;;;;;;23.29;67.03;100157.55;480964;107;924237;-71
2021/06/28 02:21:45;;;;;;;3.07;2.87;;;;;;;23.30;67.08;100153.64;481631;108;923938;-72
2021/06/28 02:22:50;;;;;;;4.33;3.37;;;;;;;23.30;67.02;100159.20;480681;108;924440;-72
2021/06/28 02:23:54;;;;;;;4.28;3.28;;;;;;;23.31;67.00;100154.47;480282;109;924134;-72
2021/06/28 02:24:57;;;;;;;10.95;3.76;;;;;;;23.31;67.00;100149.73;480889;109;924717;-71
2021/06/28 02:26:07;;;;;;;6.69;3.74;;;;;;;23.32;67.03;100151.38;480461;108;931685;-71
2021/06/28 02:27:11;;;;;;;3.38;3.18;;;;;;;23.32;67.09;100151.38;481671;108;931411;-71
2021/06/28 02:28:15;;;;;;;4.48;3.65;;;;;;;23.33;66.98;100154.96;482370;108;922430;-72
2021/06/28 02:29:19;;;;;;;4.59;3.23;;;;;;;23.32;66.99;100143.04;481906;108;922370;-71
2021/06/28 02:30:23;;;;;;;6.48;4.39;;;;;;;23.32;67.01;100148.60;481019;108;922507;-70
2021/06/28 02:31:27;;;;;;;4.23;3.84;;;;;;;23.35;67.01;100144.36;481322;109;922589;-72
2021/06/28 02:32:32;;;;;;;5.59;3.51;;;;;;;23.36;66.93;100144.06;481792;109;922425;-73
2021/06/28 02:33:36;;;;;;;4.01;3.62;;;;;;;23.37;66.92;100142.93;481636;108;922446;-72
2021/06/28 02:34:40;;;;;;;4.59;4.09;;;;;;;23.38;66.91;100138.16;481238;108;930611;-72
2021/06/28 02:35:43;;;;;;;4.59;3.81;;;;;;;23.38;66.87;100138.98;480831;109;922407;-71
2021/06/28 02:36:49;;;;;;;7.02;4.37;;;;;;;23.39;66.83;100146.20;480713;109;924597;-72
2021/06/28 02:37:53;;;;;;;4.80;4.40;;;;;;;23.41;66.84;100141.16;480804;109;924334;-71
2021/06/28 02:38:58;;;;;;;5.51;4.39;;;;;;;23.42;66.87;100139.20;480668;108;924020;-70
2021/06/28 02:40:03;;;;;;;6.62;4.22;;;;;;;23.45;66.84;100146.92;480902;108;933028;-71
2021/06/28 02:41:08;;;;;;;6.04;4.48;;;;;;;23.47;66.82;100141.91;480025;109;924530;-73
2021/06/28 02:42:12;;;;;;;5.13;3.54;;;;;;;23.50;66.83;100141.28;481410;109;924512;-71
2021/06/28 02:43:16;;;;;;;4.91;4.41;;;;;;;23.52;66.75;100141.80;481390;108;922864;-72
2021/06/28 02:44:20;;;;;;;5.45;4.29;;;;;;;23.53;66.65;100141.50;480182;108;933584;-73
2021/06/28 02:45:23;;;;;;;5.11;4.19;;;;;;;23.54;66.56;100142.33;480272;108;924326;-70
2021/06/28 02:46:27;;;;;;;6.98;4.36;;;;;;;23.54;66.57;100143.13;481764;109;926007;-71
2021/06/28 02:47:31;;;;;;;5.86;4.16;;;;;;;23.54;66.48;100142.33;481194;109;923988;-71
2021/06/28 02:48:35;;;;;;;7.64;4.42;;;;;;;23.54;66.45;100136.76;479418;109;931967;-71
2021/06/28 02:49:39;;;;;;;5.03;4.42;;;;;;;23.55;66.43;100133.64;479975;108;923819;-71
2021/06/28 02:50:43;;;;;;;4.31;3.91;;;;;;;23.56;66.44;100140.03;480664;108;933331;-71
2021/06/28 02:51:46;;;;;;;5.00;4.56;;;;;;;23.56;66.39;100140.86;479912;108;923924;-72
2021/06/28 02:52:50;;;;;;;5.73;4.93;;;;;;;23.56;66.35;100140.86;481228;108;924203;-71
2021/06/28 02:53:54;;;;;;;5.36;4.28;;;;;;;23.57;66.35;100136.95;481905;108;923782;-71
2021/06/28 02:54:57;;;;;;;5.06;4.16;;;;;;;23.57;66.35;100141.69;482627;109;932044;-71
2021/06/28 02:56:13;;;;;;;4.54;3.93;;;;;;;23.56;66.36;100146.43;480903;108;924056;-71
2021/06/28 02:57:17;;;;;;;4.62;3.90;;;;;;;23.57;66.38;100147.25;481028;108;929663;-71
2021/06/28 02:58:21;;;;;;;6.89;3.96;;;;;;;23.56;66.37;100148.38;482227;109;923970;-71
2021/06/28 02:59:25;;;;;;;4.36;3.95;;;;;;;23.56;66.39;100149.21;480062;109;931962;-70
2021/06/28 03:00:30;;;;;;;4.12;3.59;;;;;;;23.57;66.35;100145.30;480076;108;925275;-71
2021/06/28 03:01:33;;;;;;;6.99;3.74;;;;;;;23.57;66.39;100145.30;479669;108;923875;-71
2021/06/28 03:02:37;;;;;;;5.69;3.82;;;;;;;23.57;66.47;100148.08;480261;109;924798;-71
2021/06/28 03:03:41;;;;;;;4.75;4.11;;;;;;;23.58;66.49;100148.91;479790;109;924121;-71
2021/06/28 03:04:45;;;;;;;4.90;4.25;;;;;;;23.58;66.45;100144.17;480828;108;924902;-71
2021/06/28 03:05:48;;;;;;;5.14;3.69;;;;;;;23.57;66.41;100148.08;479655;108;931892;-72
2021/06/28 03:06:52;;;;;;;7.11;3.85;;;;;;;23.57;66.43;100144.47;480725;108;924027;-72
2021/06/28 03:07:56;;;;;;;4.15;3.71;;;;;;;23.57;66.45;100145.30;480274;108;923957;-70
2021/06/28 03:08:59;;;;;;;4.73;3.95;;;;;;;23.57;66.48;100142.52;481138;108;931950;-72
2021/06/28 03:10:06;;;;;;;5.48;3.74;;;;;;;23.58;66.50;100148.91;480957;108;931958;-71
2021/06/28 03:11:11;;;;;;;4.39;3.54;;;;;;;23.58;66.56;100135.81;480674;107;924305;-71
2021/06/28 03:12:15;;;;;;;4.27;3.77;;;;;;;23.59;66.54;100137.47;481847;109;924427;-71
2021/06/28 03:13:18;;;;;;;4.91;3.89;;;;;;;23.60;66.53;100141.87;480041;108;923977;-70
2021/06/28 03:14:22;;;;;;;5.93;4.12;;;;;;;23.59;66.53;100140.26;470770;112;924008;-72
2021/06/28 03:15:26;;;;;;;5.65;3.90;;;;;;;23.61;66.43;100139.92;480043;108;926659;-71
2021/06/28 03:16:31;;;;;;;4.13;3.75;;;;;;;23.60;66.36;100141.05;480564;108;924805;-71
2021/06/28 03:17:35;;;;;;;6.12;4.29;;;;;;;23.59;66.33;100142.21;480533;107;926314;-71
2021/06/28 03:18:40;;;;;;;6.28;4.29;;;;;;;23.54;66.39;100143.13;480064;108;934028;-72
2021/06/28 03:19:44;;;;;;;4.35;4.04;;;;;;;23.53;66.48;100149.02;481401;108;932448;-71
2021/06/28 03:20:48;;;;;;;4.26;3.86;;;;;;;23.51;66.56;100149.33;481048;108;922500;-71
2021/06/28 03:21:51;;;;;;;4.64;3.83;;;;;;;23.50;66.65;100144.89;482322;108;922325;-71
2021/06/28 03:22:55;;;;;;;6.55;4.40;;;;;;;23.50;66.73;100142.10;481606;108;930363;-72
2021/06/28 03:23:59;;;;;;;4.43;4.06;;;;;;;23.52;66.82;100144.58;480817;108;930277;-72
2021/06/28 03:25:03;;;;;;;4.86;4.02;;;;;;;23.52;66.86;100139.84;482234;109;930361;-71
2021/06/28 03:26:07;;;;;;;4.57;4.20;;;;;;;23.54;66.96;100137.55;481276;109;930488;-72
2021/06/28 03:27:11;;;;;;;4.27;3.87;;;;;;;23.57;66.93;100139.73;480965;108;923023;-71
2021/06/28 03:28:14;;;;;;;6.28;4.33;;;;;;;23.60;66.89;100135.48;481109;108;922584;-72
2021/06/28 03:29:18;;;;;;;4.64;3.99;;;;;;;23.63;66.83;100148.80;481543;109;930561;-72
2021/06/28 03:30:24;;;;;;;8.56;4.57;;;;;;;23.65;66.75;100138.19;480056;109;930404;-72
2021/06/28 03:31:30;;;;;;;4.59;4.04;;;;;;;23.67;66.70;100147.03;480102;108;922855;-72
2021/06/28 03:32:32;;;;;;;5.07;4.49;;;;;;;23.67;66.73;100147.85;480713;109;922661;-72
2021/06/28 03:33:36;;;;;;;5.08;4.59;;;;;;;23.69;66.69;100148.38;482664;108;924669;-71
2021/06/28 03:34:40;;;;;;;5.09;4.66;;;;;;;23.71;66.63;100148.05;480008;109;931911;-72
2021/06/28 03:35:44;;;;;;;4.64;4.24;;;;;;;23.73;66.58;100150.52;479883;108;931770;-71
2021/06/28 03:36:48;;;;;;;7.88;4.15;;;;;;;23.73;66.49;100145.78;481339;108;926603;-73
2021/06/28 03:37:51;;;;;;;4.61;4.10;;;;;;;23.76;66.40;100149.91;481757;109;924594;-71
2021/06/28 03:38:55;;;;;;;10.37;4.64;;;;;;;23.77;66.37;100159.89;481423;108;933123;-72
2021/06/28 03:39:58;;;;;;;7.62;4.44;;;;;;;23.78;66.37;100154.02;480817;108;927374;-71
2021/06/28 03:41:02;;;;;;;5.15;4.59;;;;;;;23.78;66.38;100153.19;481359;107;932132;-73
2021/06/28 03:42:06;;;;;;;7.31;4.54;;;;;;;23.78;66.33;100154.02;482197;109;923935;-72
2021/06/28 03:43:10;;;;;;;4.49;4.13;;;;;;;23.79;66.27;100160.41;482353;108;924503;-71
2021/06/28 03:44:14;;;;;;;5.55;4.81;;;;;;;23.79;66.27;100164.02;479640;108;924093;-71
2021/06/28 03:45:18;;;;;;;5.20;4.74;;;;;;;23.80;66.21;100170.42;480588;108;923897;-71
2021/06/28 03:46:23;;;;;;;5.16;4.22;;;;;;;23.81;66.15;100169.28;480322;109;932076;-71
2021/06/28 03:47:27;;;;;;;7.39;4.85;;;;;;;23.83;66.08;100166.99;481197;109;924760;-72
2021/06/28 03:48:31;;;;;;;5.16;4.17;;;;;;;23.83;66.10;100161.42;480713;108;924492;-71
2021/06/28 03:49:35;;;;;;;7.04;4.31;;;;;;;23.84;66.09;100163.08;480273;108;931914;-72
2021/06/28 03:50:41;;;;;;;5.79;5.29;;;;;;;23.84;66.15;100168.65;480267;109;930375;-71
2021/06/28 03:51:45;;;;;;;5.34;4.73;;;;;;;23.86;66.18;100171.95;481347;108;924332;-72
2021/06/28 03:52:49;;;;;;;5.14;4.66;;;;;;;23.86;66.15;100172.78;480299;108;923952;-72
2021/06/28 03:53:52;;;;;;;5.11;4.54;;;;;;;23.88;66.15;100169.66;480926;108;923983;-71
2021/06/28 03:54:56;;;;;;;5.36;4.44;;;;;;;23.90;66.21;100167.40;481043;109;932030;-71
2021/06/28 03:56:06;;;;;;;6.04;5.35;;;;;;;23.91;66.19;100167.09;481628;108;924423;-71
2021/06/28 03:57:05;;;;;;;5.59;5.11;;;;;;;23.93;66.10;100162.02;480342;108;931972;-72
2021/06/28 03:58:09;;;;;;;5.08;4.65;;;;;;;23.93;66.08;100167.58;479741;108;927285;-71
2021/06/28 03:59:13;;;;;;;5.56;4.81;;;;;;;23.93;66.06;100166.76;479594;109;925147;-72
2021/06/28 04:00:20;;;;;;;6.26;5.05;;;;;;;23.95;66.06;100170.89;482439;108;926925;-72
2021/06/28 04:01:24;;;;;;;5.43;5.01;;;;;;;23.95;66.07;100161.70;480272;108;923953;-71
2021/06/28 04:02:28;;;;;;;6.21;5.42;;;;;;;23.96;66.14;100168.94;480422;108;924012;-71
2021/06/28 04:03:35;;;;;;;5.63;5.15;;;;;;;23.97;66.12;100170.59;479845;108;923957;-71
2021/06/28 04:04:37;;;;;;;7.17;5.32;;;;;;;23.98;66.10;100169.45;481647;108;923995;-71
2021/06/28 04:05:41;;;;;;;5.84;5.33;;;;;;;23.98;66.08;100170.25;480962;108;926856;-71
2021/06/28 04:06:45;;;;;;;5.87;5.42;;;;;;;23.98;66.02;100170.25;480027;108;932689;-72
2021/06/28 04:07:50;;;;;;;5.18;4.75;;;;;;;23.98;66.08;100169.45;481937;108;924047;-71
2021/06/28 04:08:53;;;;;;;7.67;5.50;;;;;;;23.97;66.15;100167.80;479553;108;932402;-72
2021/06/28 04:09:57;;;;;;;7.03;5.66;;;;;;;23.96;66.16;100172.55;480565;108;925338;-71
2021/06/28 04:11:02;;;;;;;9.08;5.61;;;;;;;23.96;66.19;100171.72;479915;108;924102;-71
2021/06/28 04:12:06;;;;;;;6.24;5.74;;;;;;;23.97;66.16;100173.38;480895;109;922616;-71
2021/06/28 04:13:10;;;;;;;9.31;5.65;;;;;;;23.97;66.21;100173.38;481751;108;931758;-71
2021/06/28 04:14:13;;;;;;;6.97;5.86;;;;;;;23.97;66.20;100174.20;480557;108;924432;-72
2021/06/28 04:15:18;;;;;;;5.80;5.33;;;;;;;23.96;66.19;100172.55;481994;109;933375;-72
2021/06/28 04:16:22;;;;;;;6.61;6.02;;;;;;;23.96;66.23;100175.33;481088;109;931928;-71
2021/06/28 04:17:26;;;;;;;5.74;5.24;;;;;;;23.96;66.24;100172.55;482088;108;923811;-71
2021/06/28 04:18:30;;;;;;;7.45;6.09;;;;;;;23.98;66.24;100177.81;481040;108;924533;-71
2021/06/28 04:19:34;;;;;;;9.64;6.21;;;;;;;24.01;66.17;100179.95;480773;108;931263;-71
2021/06/28 04:20:38;;;;;;;6.50;6.02;;;;;;;24.03;66.03;100170.16;480511;108;930422;-72
2021/06/28 04:21:42;;;;;;;6.69;6.13;;;;;;;24.08;66.03;100169.21;480125;109;931851;-71
2021/06/28 04:22:45;;;;;;;9.79;6.21;;;;;;;24.13;65.94;100171.88;481643;108;924444;-72
2021/06/28 04:23:49;;;;;;;7.47;6.63;;;;;;;24.19;65.82;100172.61;481016;109;924012;-72
2021/06/28 04:24:53;;;;;;;7.85;6.59;;;;;;;24.24;65.72;100155.77;480142;108;931957;-72
2021/06/28 04:25:56;;;;;;;10.97;6.27;;;;;;;24.27;65.61;100169.88;480237;109;924005;-70
2021/06/28 04:27:00;;;;;;;7.79;6.78;;;;;;;24.30;65.46;100166.48;479457;108;924085;-71
2021/06/28 04:28:04;;;;;;;7.03;6.54;;;;;;;24.33;65.38;100159.44;481261;109;923988;-72
2021/06/28 04:29:08;;;;;;;9.27;6.30;;;;;;;24.37;65.36;100160.44;481586;109;933573;-70
2021/06/28 04:30:14;;;;;;;8.38;6.86;;;;;;;24.40;65.27;100159.83;481284;108;924021;-71
2021/06/28 04:31:18;;;;;;;6.77;6.17;;;;;;;24.44;65.16;100163.62;480006;108;924112;-71
2021/06/28 04:32:22;;;;;;;7.08;6.42;;;;;;;24.46;65.12;100162.17;480907;109;925420;-69
2021/06/28 04:33:26;;;;;;;7.96;7.15;;;;;;;24.49;65.08;100160.70;480468;108;932022;-69
2021/06/28 04:34:30;;;;;;;7.61;7.09;;;;;;;24.51;65.04;100164.00;481209;108;925885;-69
2021/06/28 04:35:34;;;;;;;7.85;7.08;;;;;;;24.54;65.00;100171.72;482178;108;924019;-71
2021/06/28 04:36:39;;;;;;;7.25;6.65;;;;;;;24.57;64.84;100164.70;481436;109;923964;-71
2021/06/28 04:37:43;;;;;;;7.96;7.20;;;;;;;24.60;64.71;100164.05;480180;109;924062;-70
2021/06/28 04:38:48;;;;;;;9.26;7.87;;;;;;;24.61;64.62;100171.28;481771;109;924079;-71
2021/06/28 04:39:52;;;;;;;7.29;6.76;;;;;;;24.63;64.59;100166.22;481067;108;924323;-70
2021/06/28 04:40:55;;;;;;;7.76;7.14;;;;;;;24.64;64.52;100168.70;480361;108;924635;-70
2021/06/28 04:41:59;;;;;;;7.62;7.07;;;;;;;24.66;64.44;100169.18;480503;108;931952;-71
2021/06/28 04:43:03;;;;;;;7.68;7.05;;;;;;;24.67;64.36;100164.43;480094;108;929910;-71
2021/06/28 04:44:06;;;;;;;9.15;7.79;;;;;;;24.68;64.30;100166.08;480851;108;925328;-71
2021/06/28 04:45:13;;;;;;;8.62;7.53;;;;;;;24.68;64.37;100171.66;481797;109;923992;-70
2021/06/28 04:46:18;;;;;;;8.33;7.59;;;;;;;24.69;64.46;100170.52;482548;109;932054;-71
2021/06/28 04:47:22;;;;;;;8.53;7.23;;;;;;;24.70;64.48;100166.59;482706;108;924568;-71
2021/06/28 04:48:25;;;;;;;7.96;7.13;;;;;;;24.70;64.43;100172.17;481442;108;932387;-71
2021/06/28 04:49:28;;;;;;;8.02;7.30;;;;;;;24.73;64.45;100174.31;482736;108;924006;-71
2021/06/28 04:50:33;;;;;;;9.05;8.25;;;;;;;24.76;64.50;100177.27;481893;109;924020;-71
2021/06/28 04:51:39;;;;;;;8.50;7.83;;;;;;;24.81;64.40;100176.34;481963;109;924412;-72
2021/06/28 04:52:42;;;;;;;8.66;7.73;;;;;;;24.86;64.28;100176.20;480300;108;925889;-71
2021/06/28 04:53:47;;;;;;;9.14;8.03;;;;;;;24.89;64.14;100178.38;481977;108;924032;-71
2021/06/28 04:54:50;;;;;;;8.11;7.34;;;;;;;24.92;64.03;100172.97;482711;108;924119;-71
2021/06/28 04:55:54;;;;;;;8.35;7.49;;;;;;;24.93;64.00;100168.22;481228;109;932080;-72